Home > Products > Valid Products > TAF

000
FTUS41 KGYX 182320
TAFPSM
TAF
KPSM 182320Z 1900/1924 34005KT P6SM SCT040 BKN120
     FM191600 12008KT P6SM SKC=



000
FTUS41 KGYX 182320
TAFCON
TAF
KCON 182320Z 1900/1924 34004KT P6SM SCT080
     FM191500 14005KT P6SM SKC=



000
FTUS41 KGYX 182320
TAFLEB
TAF
KLEB 182320Z 1900/1924 34006KT P6SM SKC=



000
FTUS41 KGYX 182320
TAFPWM
TAF
KPWM 182320Z 1900/1924 33005KT P6SM SCT080
     FM191600 16009KT P6SM SCT100=



000
FTUS41 KGYX 182320
TAFAUG
TAF
KAUG 182320Z 1900/1924 33004KT P6SM SCT015 BKN040
     FM191800 20007KT P6SM SKC=



000
FTUS41 KGYX 182113 AAA
TAFCON
TAF AMD
KCON 182113Z 1821/1918 35013G20KT 4SM -SHRA BKN050 OVC080
     FM182200 34009KT P6SM SCT100=



000
FTUS41 KGYX 182112 AAA
TAFPSM
TAF AMD
KPSM 182112Z 1821/1918 10006KT 6SM -SHRA SCT040 OVC080
     FM182200 32009KT P6SM SCT100=



000
FTUS41 KGYX 182111 AAA
TAFAUG
TAF AMD
KAUG 182111Z 1821/1918 23007KT 3SM RA SCT025 OVC040
     FM182200 34007KT P6SM SCT100=



000
FTUS41 KGYX 181722
TAFAUG
TAF
KAUG 181722Z 1818/1918 14007KT P6SM BKN050 OVC080
      TEMPO 1821/1901 3SM -SHRA BKN025
     FM190100 34007KT P6SM SCT100=



000
FTUS41 KGYX 181722
TAFLEB
TAF
KLEB 181722Z 1818/1918 23011KT P6SM BKN050 OVC080
      TEMPO 1818/1821 27011KT 3SM -SHRA BKN025
     FM182100 33009KT P6SM SCT100=



000
FTUS41 KGYX 181722
TAFPSM
TAF
KPSM 181722Z 1818/1918 12012KT P6SM BKN050 OVC080
      TEMPO 1821/1824 3SM -SHRA BKN025
     FM190000 32009KT P6SM SCT100=



000
FTUS41 KGYX 181722
TAFCON
TAF
KCON 181722Z 1818/1918 14009KT P6SM BKN050 OVC080
      TEMPO 1820/1823 3SM -SHRA BKN025
     FM182300 31009KT P6SM SCT100=



000
FTUS41 KGYX 181722
TAFPWM
TAF
KPWM 181722Z 1818/1918 13010KT P6SM BKN050 OVC080
      TEMPO 1821/1824 3SM -SHRA BKN025
     FM190000 32009KT P6SM SCT100=



000
FTUS41 KGYX 181722
TAFAUG
TAF
KAUG 181722Z 1818/1918 14007KT P6SM BKN050 OVC080
      TEMPO 1821/1901 3SM -SHRA BKN025
     FM190100 34007KT P6SM SCT100=



000
FTUS41 KGYX 181722
TAFPWM
TAF
KPWM 181722Z 1818/1918 13010KT P6SM BKN050 OVC080
      TEMPO 1821/1824 3SM -SHRA BKN025
     FM190000 32009KT P6SM SCT100=



000
FTUS41 KGYX 181722
TAFPSM
TAF
KPSM 181722Z 1818/1918 12012KT P6SM BKN050 OVC080
      TEMPO 1821/1824 3SM -SHRA BKN025
     FM190000 32009KT P6SM SCT100=



000
FTUS41 KGYX 181722
TAFLEB
TAF
KLEB 181722Z 1818/1918 23011KT P6SM BKN050 OVC080
      TEMPO 1818/1821 27011KT 3SM -SHRA BKN025
     FM182100 33009KT P6SM SCT100=



000
FTUS41 KGYX 181722
TAFCON
TAF
KCON 181722Z 1818/1918 14009KT P6SM BKN050 OVC080
      TEMPO 1820/1823 3SM -SHRA BKN025
     FM182300 31009KT P6SM SCT100=



000
FTUS41 KGYX 181245 AAA
TAFLEB
TAF AMD
KLEB 181245Z 1813/1912 VRB03KT P6SM SCT050 BKN100
     FM181400 23009KT P6SM BKN050
     FM181800 23013G20KT P6SM SCT050 BKN100
     FM182000 32012G19KT P6SM BKN100=



000
FTUS41 KGYX 181245 AAA
TAFLEB
TAF AMD
KLEB 181245Z 1813/1912 VRB03KT P6SM SCT050 BKN100
     FM181400 23009KT P6SM BKN050
     FM181800 23013G20KT P6SM SCT050 BKN100
     FM182000 32012G19KT P6SM BKN100=



000
FTUS41 KGYX 181121
TAFLEB
TAF
KLEB 181121Z 1812/1912 VRB03KT P6SM SCT050 BKN100
      TEMPO 1812/1813 3SM BR
     FM181400 23009KT P6SM BKN050
     FM181800 23013G20KT P6SM SCT050 BKN100
     FM182000 32012G19KT P6SM BKN100=



000
FTUS41 KGYX 181121
TAFPSM
TAF
KPSM 181121Z 1812/1912 VRB03KT P6SM SCT100
     FM181400 09009KT P6SM OVC050
     FM181800 12012G19KT P6SM SCT050 BKN100
     FM182300 30010KT P6SM BKN100=



000
FTUS41 KGYX 181121
TAFCON
TAF
KCON 181121Z 1812/1912 VRB03KT P6SM SCT100
     FM181400 15005KT P6SM OVC050
     FM181800 26012KT P6SM VCSH SCT050 OVC100
     FM182200 30010KT P6SM BKN100=



000
FTUS41 KGYX 181121
TAFAUG
TAF
KAUG 181121Z 1812/1912 04007KT P6SM SCT100
     FM181400 15007KT P6SM OVC050
     FM181900 16009KT 5SM -RA BR OVC025
     FM190500 35005KT 6SM BR OVC025=



000
FTUS41 KGYX 181121
TAFPWM
TAF
KPWM 181121Z 1812/1912 VRB03KT P6SM SCT080
     FM181400 13009KT P6SM OVC050
     FM182000 14012KT 5SM -SHRA OVC040
     FM182300 20009KT P6SM SCT040 BKN100=



000
FTUS41 KGYX 180916 AAA
TAFLEB
TAF AMD
KLEB 180916Z 1809/1906 VRB03KT P6SM SCT050 BKN100
     FM181200 23009KT P6SM BKN050
     FM181800 23013G20KT P6SM SCT050 BKN100
     FM182000 32012G19KT P6SM BKN100=



000
FTUS41 KGYX 180916 AAB
TAFCON
TAF AMD
KCON 180916Z 1809/1906 VRB03KT P6SM SCT100
      TEMPO 1809/1810 3SM BR
     FM181200 15005KT P6SM OVC050
     FM181800 26012KT P6SM VCSH SCT050 OVC100
     FM182200 30010KT P6SM BKN100=



000
FTUS41 KGYX 180916 AAA
TAFAUG
TAF AMD
KAUG 180916Z 1809/1906 28007KT P6SM SCT100
     FM181400 15007KT P6SM OVC050
     FM181900 16009KT 5SM -RA BR OVC025
     FM190500 35005KT 6SM BR OVC025=



000
FTUS41 KGYX 180916 AAA
TAFPWM
TAF AMD
KPWM 180916Z 1809/1906 25004KT P6SM SCT080
     FM181300 13009KT P6SM OVC050
     FM182000 14012KT 5SM -SHRA OVC040
     FM182300 20009KT P6SM SCT040 OVC100=



000
FTUS41 KGYX 180916 AAA
TAFPSM
TAF AMD
KPSM 180916Z 1809/1906 27006KT P6SM SCT100
     FM181200 09009KT P6SM OVC050
     FM181800 12012G19KT P6SM SCT050 BKN100
     FM182300 30010KT P6SM BKN100=



000
FTUS41 KGYX 180824 AAA
TAFCON
TAF AMD
KCON 180824Z 1808/1906 VRB03KT P6SM SCT100
      TEMPO 1808/1810 2SM BR
     FM181200 15005KT P6SM OVC050
     FM181800 26012KT P6SM VCSH SCT050 OVC100
     FM182200 30010KT P6SM BKN100=



000
FTUS41 KGYX 180824 AAA
TAFCON
TAF AMD
KCON 180824Z 1808/1906 VRB03KT P6SM SCT100
      TEMPO 1808/1810 2SM BR
     FM181200 15005KT P6SM OVC050
     FM181800 26012KT P6SM VCSH SCT050 OVC100
     FM182200 30010KT P6SM BKN100=



000
FTUS41 KGYX 180534
TAFPSM
TAF
KPSM 180534Z 1806/1906 27006KT P6SM SCT100
     FM181200 09009KT P6SM OVC050
     FM181800 12012G19KT P6SM SCT050 BKN100
     FM182300 30010KT P6SM BKN100=



000
FTUS41 KGYX 180534
TAFAUG
TAF
KAUG 180534Z 1806/1906 28007KT P6SM SCT100
     FM181400 15007KT P6SM OVC050
     FM181900 16009KT 5SM -RA BR OVC025
     FM190500 35005KT 6SM BR OVC025=



000
FTUS41 KGYX 180534
TAFPWM
TAF
KPWM 180534Z 1806/1906 25004KT P6SM SCT080
     FM181300 13009KT P6SM OVC050
     FM182000 14012KT 5SM -SHRA OVC040
     FM182300 20009KT P6SM SCT040 OVC100=



000
FTUS41 KGYX 180534
TAFCON
TAF
KCON 180534Z 1806/1906 VRB03KT P6SM SCT100
     FM181200 15005KT P6SM OVC050
     FM181800 26012KT P6SM VCSH SCT050 OVC100
     FM182200 30010KT P6SM BKN100=



000
FTUS41 KGYX 180534
TAFLEB
TAF
KLEB 180534Z 1806/1906 VRB03KT P6SM SCT050 BKN100
     FM181200 23009KT P6SM BKN050
     FM181800 23013G20KT P6SM SCT050 BKN100
     FM182000 32012G19KT P6SM BKN100=



000
FTUS41 KGYX 180534
TAFAUG
TAF
KAUG 180534Z 1806/1906 28007KT P6SM SCT100
     FM181400 15007KT P6SM OVC050
     FM181900 16009KT 5SM -RA BR OVC025
     FM190500 35005KT 6SM BR OVC025=



000
FTUS41 KGYX 180534
TAFPSM
TAF
KPSM 180534Z 1806/1906 27006KT P6SM SCT100
     FM181200 09009KT P6SM OVC050
     FM181800 12012G19KT P6SM SCT050 BKN100
     FM182300 30010KT P6SM BKN100=



000
FTUS41 KGYX 180534
TAFLEB
TAF
KLEB 180534Z 1806/1906 VRB03KT P6SM SCT050 BKN100
     FM181200 23009KT P6SM BKN050
     FM181800 23013G20KT P6SM SCT050 BKN100
     FM182000 32012G19KT P6SM BKN100=



000
FTUS41 KGYX 180534
TAFPWM
TAF
KPWM 180534Z 1806/1906 25004KT P6SM SCT080
     FM181300 13009KT P6SM OVC050
     FM182000 14012KT 5SM -SHRA OVC040
     FM182300 20009KT P6SM SCT040 OVC100=



000
FTUS41 KGYX 180534
TAFCON
TAF
KCON 180534Z 1806/1906 VRB03KT P6SM SCT100
     FM181200 15005KT P6SM OVC050
     FM181800 26012KT P6SM VCSH SCT050 OVC100
     FM182200 30010KT P6SM BKN100=



000
FTUS41 KGYX 172328
TAFPWM
TAF
KPWM 172328Z 1800/1824 29007KT P6SM SCT100
     FM181300 13009KT P6SM OVC050
     FM182300 20009KT P6SM OVC100=



000
FTUS41 KGYX 172328
TAFPSM
TAF
KPSM 172328Z 1800/1824 30007KT P6SM SCT100
     FM180800 34005KT 2SM BR SCT100
     FM181200 07009KT P6SM OVC050
     FM181800 13015G21KT P6SM BKN100=



000
FTUS41 KGYX 172328
TAFAUG
TAF
KAUG 172328Z 1800/1824 32007KT P6SM SCT100
     FM181400 17007KT P6SM OVC050
     FM182000 17011KT 4SM -RA BR OVC025=



000
FTUS41 KGYX 172328
TAFCON
TAF
KCON 172328Z 1800/1824 VRB03KT P6SM SCT100
     FM181000 27010KT P6SM OVC030
     FM182200 32012KT P6SM OVC100=



000
FTUS41 KGYX 172328
TAFLEB
TAF
KLEB 172328Z 1800/1824 28008KT P6SM SCT030 BKN100
     FM181200 23009KT P6SM OVC030
     FM181800 23013G20KT 2SM BR BKN100
     FM182000 32012G19KT P6SM OVC050=



000
FTUS41 KGYX 171724
TAFLEB
TAF
KLEB 171724Z 1718/1818 25009KT P6SM SCT020 OVC030
     FM172100 28008KT P6SM SCT030 BKN100
     FM181200 23009KT P6SM OVC030=



000
FTUS41 KGYX 171724
TAFLEB
TAF
KLEB 171724Z 1718/1818 25009KT P6SM SCT020 OVC030
     FM172100 28008KT P6SM SCT030 BKN100
     FM181200 23009KT P6SM OVC030=



000
FTUS41 KGYX 171724
TAFCON
TAF
KCON 171724Z 1718/1818 25010KT P6SM SCT015 OVC025
     FM172000 28007KT P6SM SCT025 BKN100
     FM180000 VRB03KT P6SM SCT100
     FM181000 27010KT P6SM OVC030=



000
FTUS41 KGYX 171724
TAFPSM
TAF
KPSM 171724Z 1718/1818 25009KT P6SM BKN015 OVC025
     FM172000 27009KT P6SM SCT050 BKN100
     FM180000 30007KT P6SM SCT100
     FM180800 34005KT 2SM BR SCT100
     FM181200 07009KT P6SM OVC050=



000
FTUS41 KGYX 171724
TAFPWM
TAF
KPWM 171724Z 1718/1818 26012KT P6SM SCT050 BKN100
     FM172200 29007KT P6SM SCT100
     FM181300 13009KT P6SM OVC050=



000
FTUS41 KGYX 171724
TAFAUG
TAF
KAUG 171724Z 1718/1818 27009KT P6SM SCT050 BKN100
     FM180000 32007KT P6SM SCT100
     FM181400 17007KT P6SM OVC050=



000
FTUS41 KGYX 171724
TAFPWM
TAF
KPWM 171724Z 1718/1818 26012KT P6SM SCT050 BKN100
     FM172200 29007KT P6SM SCT100
     FM181300 13009KT P6SM OVC050=



000
FTUS41 KGYX 171724
TAFPSM
TAF
KPSM 171724Z 1718/1818 25009KT P6SM BKN015 OVC025
     FM172000 27009KT P6SM SCT050 BKN100
     FM180000 30007KT P6SM SCT100
     FM180800 34005KT 2SM BR SCT100
     FM181200 07009KT P6SM OVC050=



000
FTUS41 KGYX 171724
TAFCON
TAF
KCON 171724Z 1718/1818 25010KT P6SM SCT015 OVC025
     FM172000 28007KT P6SM SCT025 BKN100
     FM180000 VRB03KT P6SM SCT100
     FM181000 27010KT P6SM OVC030=



000
FTUS41 KGYX 171724
TAFAUG
TAF
KAUG 171724Z 1718/1818 27009KT P6SM SCT050 BKN100
     FM180000 32007KT P6SM SCT100
     FM181400 17007KT P6SM OVC050=



000
FTUS41 KGYX 171549 AAC
TAFLEB
TAF AMD
KLEB 171549Z 1716/1812 25012KT P6SM SCT002 OVC025
      TEMPO 1716/1718 3SM BR BKN002
     FM172100 28008KT P6SM SCT040 BKN100=



000
FTUS41 KGYX 171547 AAB
TAFPWM
TAF AMD
KPWM 171547Z 1716/1812 24009KT P6SM OVC060
     FM171800 26009KT P6SM SCT050 BKN100=



000
FTUS41 KGYX 171501 AAA
TAFPWM
TAF AMD
KPWM 171501Z 1715/1812 20009KT 6SM -SHRA SCT025 OVC060
     FM171600 25009KT P6SM OVC060
     FM171800 26009KT P6SM SCT050 BKN100=



000
FTUS41 KGYX 171500 AAA
TAFPSM
TAF AMD
KPSM 171500Z 1715/1812 22009KT 6SM -SHRA SCT012 OVC025
     FM171600 25009KT P6SM SCT025 BKN050
     FM172000 27009KT P6SM SCT050 BKN100=



000
FTUS41 KGYX 171458 AAB
TAFLEB
TAF AMD
KLEB 171458Z 1715/1812 25012KT P6SM SCT001 OVC025
      TEMPO 1715/1717 BKN002
     FM172100 28008KT P6SM SCT040 BKN100=



000
FTUS41 KGYX 171329 AAA
TAFLEB
TAF AMD
KLEB 171329Z 1713/1812 22007KT 6SM -SHRA OVC025
     FM171500 25012KT P6SM OVC025
     FM172100 28008KT P6SM SCT040 BKN100=



000
FTUS41 KGYX 171120
TAFLEB
TAF
KLEB 171120Z 1712/1812 21007KT P6SM OVC025
     FM171300 22012KT 6SM -SHRA SCT015 OVC025
     FM171600 25012KT P6SM OVC025
     FM172100 28008KT P6SM SCT040 BKN100=



000
FTUS41 KGYX 171120
TAFAUG
TAF
KAUG 171120Z 1712/1812 20007KT P6SM BKN100
     FM171400 22012KT 6SM -SHRA SCT012 OVC025
     FM171700 25012G20KT P6SM OVC025
     FM172100 27008KT P6SM SCT050 BKN100=



000
FTUS41 KGYX 171120
TAFPWM
TAF
KPWM 171120Z 1712/1812 19007KT P6SM -SHRA OVC080
     FM171400 22012KT 6SM -SHRA SCT012 OVC025
     FM171700 25012G20KT P6SM OVC025
     FM171800 25010G18KT P6SM SCT050 BKN100=



000
FTUS41 KGYX 171120
TAFCON
TAF
KCON 171120Z 1712/1812 19008KT P6SM -SHRA OVC050
     FM171300 22012KT 6SM -SHRA SCT012 OVC025
     FM171700 25010G18KT P6SM OVC025
     FM172000 27008G16KT P6SM SCT050 BKN100=



000
FTUS41 KGYX 171120
TAFPSM
TAF
KPSM 171120Z 1712/1812 20009KT P6SM -SHRA BKN100
     FM171400 22012G19KT 6SM -SHRA SCT012 OVC025
     FM171600 25012G20KT P6SM OVC025
     FM172000 27010G20KT P6SM SCT050 BKN100=



000
FTUS41 KGYX 171059 AAB
TAFPWM
TAF AMD
KPWM 171059Z 1711/1806 19007KT P6SM -SHRA OVC080
     FM171400 22012KT 6SM -SHRA SCT012 OVC025
     FM171700 25012G20KT P6SM OVC025
     FM171800 25010G18KT P6SM SCT050 BKN100=



000
FTUS41 KGYX 171057 AAB
TAFCON
TAF AMD
KCON 171057Z 1711/1806 19008KT P6SM -SHRA OVC050
     FM171300 22012KT 6SM -SHRA SCT012 OVC025
     FM171700 25010G18KT P6SM OVC025
     FM172000 27008G16KT P6SM SCT050 BKN100=



000
FTUS41 KGYX 171056 AAB
TAFAUG
TAF AMD
KAUG 171056Z 1711/1806 20007KT P6SM BKN100
     FM171400 22012KT 6SM -SHRA SCT012 OVC025
     FM171700 25012G20KT P6SM OVC025
     FM172100 27008KT P6SM SCT050 BKN100=



000
FTUS41 KGYX 171056 AAB
TAFPSM
TAF AMD
KPSM 171056Z 1711/1806 20009KT P6SM -SHRA BKN100
     FM171400 22012G19KT 6SM -SHRA SCT012 OVC025
     FM171600 25012G20KT P6SM OVC025
     FM172000 27010G20KT P6SM SCT050 BKN100=



000
FTUS41 KGYX 171056 AAB
TAFAUG
TAF AMD
KAUG 171056Z 1711/1806 20007KT P6SM BKN100
     FM171400 22012KT 6SM -SHRA SCT012 OVC025
     FM171700 25012G20KT P6SM OVC025
     FM172100 27008KT P6SM SCT050 BKN100=



000
FTUS41 KGYX 171056 AAB
TAFPSM
TAF AMD
KPSM 171056Z 1711/1806 20009KT P6SM -SHRA BKN100
     FM171400 22012G19KT 6SM -SHRA SCT012 OVC025
     FM171600 25012G20KT P6SM OVC025
     FM172000 27010G20KT P6SM SCT050 BKN100=



000
FTUS41 KGYX 171046 AAC
TAFLEB
TAF AMD
KLEB 171046Z 1711/1806 21007KT P6SM OVC025
     FM171300 22012KT 6SM -SHRA SCT015 OVC025
     FM171600 25012KT P6SM OVC025
     FM172100 28008KT P6SM SCT040 BKN100=



000
FTUS41 KGYX 171008 AAB
TAFLEB
TAF AMD
KLEB 171008Z 1710/1806 17009KT P6SM BKN035
     FM171200 22012KT 6SM -SHRA SCT015 OVC025
     FM171600 25012KT P6SM OVC025
     FM172100 28008KT P6SM SCT040 BKN100=



000
FTUS41 KGYX 170920 AAA
TAFCON
TAF AMD
KCON 170920Z 1709/1806 20009KT P6SM BKN100
     FM171100 22012KT 6SM -SHRA SCT012 OVC025
     FM171700 25010G18KT P6SM OVC025
     FM172000 27008G16KT P6SM SCT050 BKN100=



000
FTUS41 KGYX 170920 AAA
TAFAUG
TAF AMD
KAUG 170920Z 1709/1806 19007KT P6SM BKN100
     FM171300 22012KT 6SM -SHRA SCT012 OVC025
     FM171700 25012G20KT P6SM OVC025
     FM172100 27008KT P6SM SCT050 BKN100=



000
FTUS41 KGYX 170920 AAA
TAFPWM
TAF AMD
KPWM 170920Z 1709/1806 20007KT P6SM BKN100
     FM171300 22012KT 6SM -SHRA SCT012 OVC025
     FM171700 25012G20KT P6SM OVC025
     FM171800 25010G18KT P6SM SCT050 BKN100=



000
FTUS41 KGYX 170920 AAA
TAFLEB
TAF AMD
KLEB 170920Z 1709/1806 19012KT P6SM BKN100
     FM171000 22012KT 5SM -SHRA SCT015 OVC025
     FM171600 25012KT P6SM OVC025
     FM172100 28008KT P6SM SCT040 BKN100=



000
FTUS41 KGYX 170920 AAA
TAFPSM
TAF AMD
KPSM 170920Z 1709/1806 20009KT P6SM BKN100
     FM171200 22012G19KT 6SM -SHRA SCT012 OVC025
     FM171600 25012G20KT P6SM OVC025
     FM172000 27010G20KT P6SM SCT050 BKN100=



000
FTUS41 KGYX 170529
TAFCON
TAF
KCON 170529Z 1706/1806 20009KT P6SM BKN100
     FM171100 22012KT 4SM -SHRA OVC012
     FM171700 25010G18KT P6SM OVC015
     FM172000 27008G16KT P6SM SCT050 BKN100=



000
FTUS41 KGYX 170529
TAFLEB
TAF
KLEB 170529Z 1706/1806 19012KT P6SM BKN100
     FM171000 22012KT 5SM -SHRA OVC015
     FM171600 25012KT P6SM OVC015
     FM172100 28008KT P6SM SCT040 BKN100=



000
FTUS41 KGYX 170529
TAFAUG
TAF
KAUG 170529Z 1706/1806 19007KT P6SM BKN100
     FM171300 22012KT 6SM -SHRA OVC012
     FM171700 25012G20KT P6SM OVC015
     FM172100 27008KT P6SM SCT050 BKN100=



000
FTUS41 KGYX 170529
TAFPWM
TAF
KPWM 170529Z 1706/1806 20007KT P6SM BKN100
     FM171300 22012KT 6SM -SHRA OVC012
     FM171700 25012G20KT P6SM OVC015
     FM171800 25010G18KT P6SM SCT050 BKN100=



000
FTUS41 KGYX 170529
TAFPSM
TAF
KPSM 170529Z 1706/1806 20009KT P6SM BKN100
     FM171200 22012G19KT 6SM -SHRA OVC012
     FM171600 25012G20KT P6SM OVC015
     FM172000 27010G20KT P6SM SCT050 BKN100=



000
FTUS41 KGYX 162320
TAFPSM
TAF
KPSM 162320Z 1700/1724 21007KT P6SM OVC100
     FM171200 22012G19KT 6SM -RA OVC007
     FM171600 25012G20KT P6SM OVC015
     FM172000 27010G20KT P6SM OVC100=



000
FTUS41 KGYX 162320
TAFPWM
TAF
KPWM 162320Z 1700/1724 21007KT P6SM OVC100
     FM171300 22012KT 6SM -RA OVC007
     FM171700 25012G20KT P6SM OVC015
     FM171800 25010G18KT P6SM OVC100=



000
FTUS41 KGYX 162320
TAFAUG
TAF
KAUG 162320Z 1700/1724 21007KT P6SM OVC100
     FM171300 22012KT 6SM -RA OVC007
     FM171700 25012G20KT P6SM OVC015
     FM172100 27008KT P6SM OVC100=



000
FTUS41 KGYX 162320
TAFCON
TAF
KCON 162320Z 1700/1724 19007KT P6SM OVC100
     FM171100 22012KT 4SM -RA OVC007
     FM171700 25010G18KT P6SM OVC015
     FM172000 27008G16KT P6SM OVC100=



000
FTUS41 KGYX 162320
TAFLEB
TAF
KLEB 162320Z 1700/1724 19007KT P6SM OVC100
     FM171000 22012KT 4SM -RA OVC010
     FM171600 25012KT P6SM OVC015
     FM172100 28008KT P6SM BKN100=



000
FTUS41 KGYX 161720
TAFAUG
TAF
KAUG 161720Z 1618/1718 19005KT P6SM FEW250
     FM170000 20006KT P6SM OVC250
     FM170900 21007KT P6SM OVC100
     FM171300 22012G19KT 6SM BR OVC007
      TEMPO 1713/1717 4SM -RA OVC007
     FM171700 25012G20KT P6SM OVC015=



000
FTUS41 KGYX 161720
TAFCON
TAF
KCON 161720Z 1618/1718 19007KT P6SM BKN250
     FM170000 20006KT P6SM OVC250
     FM170600 19007KT P6SM OVC100
     FM171300 22012KT 4SM -RA OVC007
     FM171700 25012KT P6SM OVC015=



000
FTUS41 KGYX 161720
TAFPWM
TAF
KPWM 161720Z 1618/1718 15011G17KT P6SM FEW250
     FM170000 20006KT P6SM OVC250
     FM170900 21007KT P6SM OVC100
     FM171300 22012G19KT 6SM BR OVC007
      TEMPO 1713/1717 4SM -RA OVC007
     FM171700 25012G20KT P6SM OVC015=



000
FTUS41 KGYX 161720
TAFCON
TAF
KCON 161720Z 1618/1718 19007KT P6SM BKN250
     FM170000 20006KT P6SM OVC250
     FM170600 19007KT P6SM OVC100
     FM171300 22012KT 4SM -RA OVC007
     FM171700 25012KT P6SM OVC015=



000
FTUS41 KGYX 161720
TAFLEB
TAF
KLEB 161720Z 1618/1718 19007KT P6SM BKN250
     FM170000 20006KT P6SM OVC250
     FM170600 19007KT P6SM OVC100
     FM171200 22012KT 4SM -RA OVC007
     FM171600 25012KT P6SM OVC015=



000
FTUS41 KGYX 161720
TAFPSM
TAF
KPSM 161720Z 1618/1718 13010G17KT P6SM FEW250
     FM170000 20006KT P6SM OVC250
     FM170900 21007KT P6SM OVC100
     FM171300 22012G19KT 6SM BR OVC007
      TEMPO 1713/1717 4SM -RA OVC007
     FM171700 25012G20KT P6SM OVC015=



000
FTUS41 KGYX 161720
TAFPWM
TAF
KPWM 161720Z 1618/1718 15011G17KT P6SM FEW250
     FM170000 20006KT P6SM OVC250
     FM170900 21007KT P6SM OVC100
     FM171300 22012G19KT 6SM BR OVC007
      TEMPO 1713/1717 4SM -RA OVC007
     FM171700 25012G20KT P6SM OVC015=



000
FTUS41 KGYX 161720
TAFPSM
TAF
KPSM 161720Z 1618/1718 13010G17KT P6SM FEW250
     FM170000 20006KT P6SM OVC250
     FM170900 21007KT P6SM OVC100
     FM171300 22012G19KT 6SM BR OVC007
      TEMPO 1713/1717 4SM -RA OVC007
     FM171700 25012G20KT P6SM OVC015=



000
FTUS41 KGYX 161720
TAFAUG
TAF
KAUG 161720Z 1618/1718 19005KT P6SM FEW250
     FM170000 20006KT P6SM OVC250
     FM170900 21007KT P6SM OVC100
     FM171300 22012G19KT 6SM BR OVC007
      TEMPO 1713/1717 4SM -RA OVC007
     FM171700 25012G20KT P6SM OVC015=



000
FTUS41 KGYX 161720
TAFLEB
TAF
KLEB 161720Z 1618/1718 19007KT P6SM BKN250
     FM170000 20006KT P6SM OVC250
     FM170600 19007KT P6SM OVC100
     FM171200 22012KT 4SM -RA OVC007
     FM171600 25012KT P6SM OVC015=



000
FTUS41 KGYX 161120
TAFLEB
TAF
KLEB 161120Z 1612/1712 VRB03KT P6SM SKC
     FM161700 20008KT P6SM SCT200
     FM170000 18008KT P6SM SCT100 BKN200
     FM170800 19010KT P6SM -SHRA BKN050 OVC080=



000
FTUS41 KGYX 161120
TAFPWM
TAF
KPWM 161120Z 1612/1712 28004KT P6SM SKC
     FM161600 18010KT P6SM SKC
     FM170000 21006KT P6SM BKN200
     FM170900 21010KT P6SM SCT060 BKN100=



000
FTUS41 KGYX 161120
TAFPSM
TAF
KPSM 161120Z 1612/1712 VRB04KT P6SM SKC
     FM161500 15010KT P6SM SCT200
     FM170000 21008KT P6SM BKN200
     FM170800 21010KT P6SM SCT060 BKN100=



000
FTUS41 KGYX 161120
TAFCON
TAF
KCON 161120Z 1612/1712 VRB04KT P6SM SKC
     FM161700 18009KT P6SM SCT200
     FM170000 18006KT P6SM BKN200
     FM170800 18009KT P6SM SCT060 BKN100=



000
FTUS41 KGYX 161120
TAFAUG
TAF
KAUG 161120Z 1612/1712 VRB03KT P6SM SKC
     FM161700 19010KT P6SM SKC
     FM170000 18008KT P6SM BKN200
     FM170900 21008KT P6SM SCT060 BKN100=



000
FTUS41 KGYX 161120
TAFCON
TAF
KCON 161120Z 1612/1712 VRB04KT P6SM SKC
     FM161700 18009KT P6SM SCT200
     FM170000 18006KT P6SM BKN200
     FM170800 18009KT P6SM SCT060 BKN100=



000
FTUS41 KGYX 161120
TAFAUG
TAF
KAUG 161120Z 1612/1712 VRB03KT P6SM SKC
     FM161700 19010KT P6SM SKC
     FM170000 18008KT P6SM BKN200
     FM170900 21008KT P6SM SCT060 BKN100=



000
FTUS41 KGYX 161120
TAFPSM
TAF
KPSM 161120Z 1612/1712 VRB04KT P6SM SKC
     FM161500 15010KT P6SM SCT200
     FM170000 21008KT P6SM BKN200
     FM170800 21010KT P6SM SCT060 BKN100=



000
FTUS41 KGYX 161120
TAFPWM
TAF
KPWM 161120Z 1612/1712 28004KT P6SM SKC
     FM161600 18010KT P6SM SKC
     FM170000 21006KT P6SM BKN200
     FM170900 21010KT P6SM SCT060 BKN100=



000
FTUS41 KGYX 161120
TAFLEB
TAF
KLEB 161120Z 1612/1712 VRB03KT P6SM SKC
     FM161700 20008KT P6SM SCT200
     FM170000 18008KT P6SM SCT100 BKN200
     FM170800 19010KT P6SM -SHRA BKN050 OVC080=



000
FTUS41 KGYX 160906 AAA
TAFLEB
TAF AMD
KLEB 160906Z 1609/1706 VRB03KT P6SM SKC
     FM161700 20008KT P6SM SKC=



000
FTUS41 KGYX 160906 AAA
TAFAUG
TAF AMD
KAUG 160906Z 1609/1706 VRB03KT P6SM SKC
     FM161700 19010KT P6SM SKC
     FM170000 18004KT P6SM BKN200=



000
FTUS41 KGYX 160906 AAA
TAFPSM
TAF AMD
KPSM 160906Z 1609/1706 VRB04KT P6SM SKC
     FM161500 15010KT P6SM SCT200
     FM170000 21008KT P6SM BKN200=



000
FTUS41 KGYX 160906 AAA
TAFPSM
TAF AMD
KPSM 160906Z 1609/1706 VRB04KT P6SM SKC
     FM161500 15010KT P6SM SCT200
     FM170000 21008KT P6SM BKN200=



000
FTUS41 KGYX 160906 AAA
TAFLEB
TAF AMD
KLEB 160906Z 1609/1706 VRB03KT P6SM SKC
     FM161700 20008KT P6SM SKC=



000
FTUS41 KGYX 160905 AAA
TAFCON
TAF AMD
KCON 160905Z 1609/1706 VRB04KT P6SM SKC
     FM161700 18009KT P6SM SCT200
     FM170000 20005KT P6SM BKN200=



000
FTUS41 KGYX 160905 AAA
TAFPWM
TAF AMD
KPWM 160905Z 1609/1706 28004KT P6SM SKC
     FM161600 18010KT P6SM SKC
     FM170000 21006KT P6SM BKN200=



000
FTUS41 KGYX 160905 AAA
TAFCON
TAF AMD
KCON 160905Z 1609/1706 VRB04KT P6SM SKC
     FM161700 18009KT P6SM SCT200
     FM170000 20005KT P6SM BKN200=



000
FTUS41 KGYX 160529
TAFLEB
TAF
KLEB 160529Z 1606/1706 VRB03KT P6SM SKC
     FM161700 20008KT P6SM SKC=



000
FTUS41 KGYX 160529
TAFPSM
TAF
KPSM 160529Z 1606/1706 VRB04KT P6SM SKC
     FM161500 15010KT P6SM SCT200
     FM170000 21008KT P6SM BKN200=



000
FTUS41 KGYX 160529
TAFCON
TAF
KCON 160529Z 1606/1706 VRB04KT P6SM SKC
     FM161700 18009KT P6SM SCT200
     FM170000 20005KT P6SM BKN200=



000
FTUS41 KGYX 160529
TAFAUG
TAF
KAUG 160529Z 1606/1706 31006KT P6SM SKC
     FM161800 19010KT P6SM SKC
     FM170000 18004KT P6SM BKN200=



000
FTUS41 KGYX 160529
TAFPWM
TAF
KPWM 160529Z 1606/1706 VRB04KT P6SM SKC
     FM161600 18010KT P6SM SKC
     FM170000 21006KT P6SM BKN200=



    US Dept of Commerce
    National Oceanic and Atmospheric Administration
    National Weather Service
    1325 East West Highway
    Silver Spring, MD 20910
    Page Author: NWS Internet Services Team
Disclaimer
Information Quality
Credits
Glossary
Privacy Policy
Freedom of Information Act (FOIA)
About Us
Career Opportunities